Time;durP1;ratioP1;P1;durP2;ratioP2;P2;SDS_P1;SDS_P2;PMS_P1;PMS_P2;Temp;Humidity;BMP_temperature;BMP_pressure;BME280_temperature;BME280_humidity;BME280_pressure;Samples;Min_cycle;Max_cycle;Signal;HPM_P1;HPM_P2
2022/08/03 00:02:18;;;;;;;;;17.25;15.50;;;28.82;97767.30;;;;119298;1188;25507;-69
2022/08/03 00:04:46;;;;;;;;;17.00;15.25;;;28.80;97764.64;;;;119275;1187;25048;-72
2022/08/03 00:07:14;;;;;;;;;14.00;13.33;;;28.77;97765.13;;;;119270;1187;25913;-73
2022/08/03 00:09:42;;;;;;;;;14.50;12.75;;;28.75;97763.35;;;;119247;1187;25265;-70
2022/08/03 00:12:10;;;;;;;;;11.33;11.33;;;28.72;97763.77;;;;119233;1188;25657;-68
2022/08/03 00:14:38;;;;;;;;;17.25;15.75;;;28.70;97765.41;;;;119228;1189;25998;-68
2022/08/03 00:17:06;;;;;;;;;16.00;14.25;;;28.68;97763.42;;;;119225;1188;25634;-69
2022/08/03 00:19:34;;;;;;;;;14.50;14.50;;;28.67;97763.30;;;;119187;1188;26066;-70
2022/08/03 00:22:02;;;;;;;;;12.50;12.50;;;28.65;97766.48;;;;119018;1190;25701;-69
2022/08/03 00:24:30;;;;;;;;;15.00;14.00;;;28.63;97770.02;;;;119053;1190;25303;-68
2022/08/03 00:26:58;;;;;;;;;15.33;15.33;;;28.61;97771.66;;;;119255;1188;25363;-68
2022/08/03 00:29:26;;;;;;;;;15.50;11.00;;;28.58;97774.95;;;;119207;1188;25069;-68
2022/08/03 00:31:54;;;;;;;;;15.00;14.75;;;28.56;97773.72;;;;119187;1186;25618;-68
2022/08/03 00:34:27;;;;;;;;;12.67;12.00;;;28.55;97776.59;;;;119227;1187;25724;-68
2022/08/03 00:37:15;;;;;;;;;14.25;14.00;;;28.58;97773.94;;;;119007;1190;24922;-68
2022/08/03 00:39:45;;;;;;;;;11.75;11.75;;;28.58;97773.41;;;;119033;1189;25745;-68
2022/08/03 00:42:13;;;;;;;;;14.00;13.50;;;28.54;97768.87;;;;119023;1189;26252;-68
2022/08/03 00:44:43;;;;;;;;;13.25;12.75;;;28.51;97770.08;;;;119030;1189;26333;-68
2022/08/03 00:47:11;;;;;;;;;15.75;14.50;;;28.48;97772.02;;;;119238;1188;26154;-68
2022/08/03 00:49:40;;;;;;;;;15.50;14.75;;;28.44;97771.48;;;;119261;1188;25284;-67
2022/08/03 00:52:09;;;;;;;;;10.75;10.75;;;28.43;97771.52;;;;119227;1187;24974;-66
2022/08/03 00:54:38;;;;;;;;;10.75;10.25;;;28.42;97772.77;;;;118974;1190;25052;-68
2022/08/03 00:57:06;;;;;;;;;15.00;14.25;;;28.39;97770.25;;;;119043;1190;25510;-68
2022/08/03 00:59:37;;;;;;;;;16.67;13.33;;;28.36;97775.28;;;;118963;1190;24836;-68
2022/08/03 01:02:05;;;;;;;;;10.75;10.25;;;28.32;97772.55;;;;119003;1190;25757;-68
2022/08/03 01:04:33;;;;;;;;;12.25;12.25;;;28.31;97769.88;;;;118967;1191;25131;-68
2022/08/03 01:07:13;;;;;;;;;14.00;14.00;;;28.29;97769.90;;;;119020;1190;25745;-69
2022/08/03 01:09:57;;;;;;;;;15.50;14.25;;;28.27;97770.36;;;;119037;1187;25408;-68
2022/08/03 01:12:48;;;;;;;;;21.00;15.75;;;28.27;97770.96;;;;119048;1189;24855;-68
2022/08/03 01:15:27;;;;;;;;;17.00;14.25;;;28.27;97774.68;;;;119031;1189;25105;-68
2022/08/03 01:17:59;;;;;;;;;17.50;16.50;;;28.25;97772.60;;;;119203;1186;25353;-67
2022/08/03 01:20:32;;;;;;;;;17.00;16.00;;;28.24;97773.07;;;;119169;1187;25049;-68
2022/08/03 01:23:37;;;;;;;;;17.25;15.75;;;28.22;97772.18;;;;119171;1188;25550;-67
2022/08/03 01:26:11;;;;;;;;;16.00;15.00;;;28.22;97774.85;;;;119124;1186;24956;-67
2022/08/03 01:29:17;;;;;;;;;17.25;16.25;;;28.16;97771.67;;;;119154;1187;24714;-69
2022/08/03 01:31:52;;;;;;;;;15.25;15.25;;;28.16;97771.02;;;;119161;1188;25169;-68
2022/08/03 01:34:46;;;;;;;;;15.75;14.25;;;28.16;97770.42;;;;119179;1187;25941;-68
2022/08/03 01:37:20;;;;;;;;;15.00;14.33;;;28.17;97769.27;;;;119149;1187;24754;-68
2022/08/03 01:39:52;;;;;;;;;17.75;16.50;;;28.15;97768.19;;;;119038;1189;24868;-69
2022/08/03 01:42:23;;;;;;;;;15.25;15.25;;;28.13;97769.66;;;;119137;1187;25048;-72
2022/08/03 01:44:52;;;;;;;;;15.00;14.25;;;28.13;97771.81;;;;119148;1187;25245;-69
2022/08/03 01:47:21;;;;;;;;;12.50;9.50;;;28.11;97774.21;;;;118984;1189;26390;-73
2022/08/03 01:49:51;;;;;;;;;16.25;15.25;;;28.08;97775.42;;;;119044;1190;25949;-70
2022/08/03 01:52:20;;;;;;;;;17.00;15.75;;;28.08;97773.66;;;;119039;1189;26409;-68
2022/08/03 01:54:50;;;;;;;;;15.00;12.25;;;28.05;97772.45;;;;119055;1189;25449;-70
2022/08/03 01:57:19;;;;;;;;;13.50;11.50;;;28.05;97774.66;;;;119026;1188;25573;-67
2022/08/03 01:59:48;;;;;;;;;14.25;12.75;;;28.05;97773.95;;;;119023;1188;25558;-68
2022/08/03 02:02:17;;;;;;;;;14.00;14.00;;;28.03;97773.67;;;;119200;1188;25270;-70
2022/08/03 02:05:03;;;;;;;;;13.00;11.50;;;28.06;97769.89;;;;119012;1189;25615;-69
2022/08/03 02:07:33;;;;;;;;;15.75;15.75;;;28.08;97764.98;;;;119147;1187;25162;-70
2022/08/03 02:10:04;;;;;;;;;18.50;18.25;;;28.06;97761.82;;;;119047;1189;25703;-69
2022/08/03 02:12:34;;;;;;;;;16.67;15.33;;;28.04;97761.94;;;;118979;1189;25633;-68
2022/08/03 02:15:02;;;;;;;;;16.00;16.00;;;28.03;97763.31;;;;118945;1190;25039;-68
2022/08/03 02:17:31;;;;;;;;;14.00;13.50;;;28.02;97763.39;;;;119026;1190;25072;-67
2022/08/03 02:20:10;;;;;;;;;15.75;15.25;;;28.01;97763.91;;;;118978;1189;25536;-68
2022/08/03 02:22:39;;;;;;;;;15.50;12.75;;;28.01;97766.58;;;;119026;1190;25291;-67
2022/08/03 02:25:09;;;;;;;;;16.00;15.25;;;27.99;97770.77;;;;118999;1190;25799;-68
2022/08/03 02:27:42;;;;;;;;;14.25;13.75;;;27.97;97769.30;;;;119020;1189;25383;-69
2022/08/03 02:30:13;;;;;;;;;17.00;16.00;;;27.95;97766.21;;;;118976;1191;25566;-69
2022/08/03 02:32:43;;;;;;;;;17.00;15.75;;;27.93;97766.77;;;;119046;1189;24979;-73
2022/08/03 02:35:12;;;;;;;;;16.25;16.25;;;27.91;97762.27;;;;119042;1188;25125;-73
2022/08/03 02:37:43;;;;;;;;;17.50;16.50;;;27.89;97765.83;;;;119082;1189;25006;-70
2022/08/03 02:40:18;;;;;;;;;15.00;14.25;;;27.88;97763.05;;;;119172;1187;25175;-69
2022/08/03 02:42:49;;;;;;;;;13.67;10.67;;;27.86;97759.48;;;;119185;1188;25243;-70
2022/08/03 02:45:17;;;;;;;;;16.25;14.00;;;27.84;97757.58;;;;119191;1188;25574;-70
2022/08/03 02:47:47;;;;;;;;;16.00;16.00;;;27.81;97753.91;;;;119043;1189;24885;-69
2022/08/03 02:50:22;;;;;;;;;14.50;14.50;;;27.80;97752.07;;;;119083;1188;25462;-68
2022/08/03 02:52:52;;;;;;;;;17.00;15.50;;;27.79;97753.73;;;;119070;1188;25666;-68
2022/08/03 02:55:21;;;;;;;;;15.00;15.00;;;27.78;97754.39;;;;119056;1188;25938;-70
2022/08/03 02:57:50;;;;;;;;;15.25;15.25;;;27.75;97755.79;;;;119069;1189;25593;-69
2022/08/03 03:00:19;;;;;;;;;15.75;14.50;;;27.74;97764.86;;;;119167;1187;25851;-69
2022/08/03 03:02:57;;;;;;;;;13.50;13.50;;;27.73;97771.73;;;;119185;1188;25379;-70
2022/08/03 03:05:26;;;;;;;;;17.25;16.25;;;27.72;97771.25;;;;119169;1187;24984;-69
2022/08/03 03:08:17;;;;;;;;;15.25;13.75;;;27.73;97770.41;;;;119164;1187;24782;-69
2022/08/03 03:10:57;;;;;;;;;17.25;16.75;;;27.75;97769.96;;;;119162;1188;24962;-68
2022/08/03 03:13:27;;;;;;;;;13.75;13.75;;;27.73;97760.45;;;;119175;1188;25625;-70
2022/08/03 03:15:56;;;;;;;;;17.25;15.75;;;27.70;97764.33;;;;119172;1186;25023;-69
2022/08/03 03:18:27;;;;;;;;;17.25;14.00;;;27.67;97765.61;;;;119067;1188;25583;-71
2022/08/03 03:20:55;;;;;;;;;18.50;16.25;;;27.66;97768.79;;;;119162;1188;25058;-69
2022/08/03 03:23:24;;;;;;;;;17.75;17.00;;;27.64;97769.03;;;;119172;1188;25191;-67
2022/08/03 03:25:52;;;;;;;;;17.00;17.00;;;27.62;97771.60;;;;119011;1187;25567;-70
2022/08/03 03:28:21;;;;;;;;;15.00;14.75;;;27.60;97774.84;;;;119162;1188;25261;-69
2022/08/03 03:30:51;;;;;;;;;19.50;16.50;;;27.59;97777.52;;;;119142;1189;25673;-70
2022/08/03 03:33:21;;;;;;;;;15.75;15.75;;;27.58;97784.59;;;;119157;1187;25460;-69
2022/08/03 03:35:50;;;;;;;;;16.33;15.33;;;27.57;97784.64;;;;119259;1187;26437;-68
2022/08/03 03:38:19;;;;;;;;;16.33;15.00;;;27.57;97786.24;;;;119261;1186;25630;-71
2022/08/03 03:40:47;;;;;;;;;15.25;14.75;;;27.56;97790.17;;;;119256;1187;25261;-67
2022/08/03 03:43:17;;;;;;;;;18.67;16.33;;;27.55;97792.52;;;;119253;1187;24917;-68
2022/08/03 03:45:46;;;;;;;;;21.25;18.00;;;27.54;97794.80;;;;119263;1187;25048;-69
2022/08/03 03:48:14;;;;;;;;;21.25;16.25;;;27.54;97798.83;;;;119028;1190;24930;-68
2022/08/03 03:50:43;;;;;;;;;20.25;17.25;;;27.55;97799.33;;;;119273;1187;25365;-68
2022/08/03 03:53:12;;;;;;;;;18.00;18.00;;;27.56;97795.19;;;;119180;1188;25651;-69
2022/08/03 03:55:40;;;;;;;;;17.50;16.25;;;27.55;97793.48;;;;119210;1187;25872;-68
2022/08/03 03:58:29;;;;;;;;;16.75;16.50;;;27.59;97794.33;;;;119160;1188;25740;-68
2022/08/03 04:00:58;;;;;;;;;18.75;15.00;;;27.63;97795.84;;;;119127;1188;25984;-68
2022/08/03 04:03:26;;;;;;;;;18.50;17.75;;;27.61;97801.20;;;;119195;1187;25003;-62
2022/08/03 04:11:32;;;;;;;;;14.75;14.50;;;27.78;97812.39;;;;119101;1187;25365;-69
2022/08/03 04:14:05;;;;;;;;;16.75;15.75;;;27.83;97814.05;;;;118986;1190;25515;-68
2022/08/03 04:16:37;;;;;;;;;17.00;15.00;;;27.91;97815.23;;;;119026;1189;25784;-64
2022/08/03 04:19:15;;;;;;;;;16.67;16.67;;;27.98;97815.88;;;;119028;1189;24887;-64
2022/08/03 04:21:52;;;;;;;;;17.75;15.00;;;28.05;97811.16;;;;119040;1190;24796;-64
2022/08/03 04:24:28;;;;;;;;;19.00;18.25;;;28.11;97809.92;;;;119038;1189;24738;-65
2022/08/03 04:26:58;;;;;;;;;19.75;15.75;;;28.14;97816.50;;;;119050;1189;24866;-66
2022/08/03 04:29:28;;;;;;;;;16.75;16.00;;;28.18;97821.58;;;;118920;1191;26344;-66
2022/08/03 04:31:57;;;;;;;;;13.50;12.25;;;28.21;97821.00;;;;119009;1189;24779;-66
2022/08/03 04:34:26;;;;;;;;;17.50;16.25;;;28.25;97823.33;;;;118972;1190;24877;-66
2022/08/03 04:36:58;;;;;;;;;17.50;16.25;;;28.28;97823.84;;;;119052;1189;25459;-66
2022/08/03 04:39:29;;;;;;;;;19.00;18.25;;;28.32;97823.08;;;;119015;1190;25164;-65
2022/08/03 04:42:01;;;;;;;;;16.00;16.00;;;28.36;97826.13;;;;118999;1189;24986;-65
2022/08/03 04:44:45;;;;;;;;;13.50;12.50;;;28.44;97824.36;;;;118966;1188;25516;-65
2022/08/03 04:47:13;;;;;;;;;17.00;15.75;;;28.51;97823.00;;;;119149;1187;24892;-67
2022/08/03 04:49:41;;;;;;;;;17.25;15.75;;;28.52;97823.98;;;;119180;1188;25295;-67
2022/08/03 04:52:10;;;;;;;;;15.75;14.75;;;28.53;97826.52;;;;119213;1188;25332;-67
2022/08/03 04:54:41;;;;;;;;;17.50;15.75;;;28.55;97828.50;;;;119052;1188;25951;-67
2022/08/03 04:57:10;;;;;;;;;20.25;19.25;;;28.58;97831.90;;;;119213;1186;25249;-65
2022/08/03 04:59:53;;;;;;;;;28.25;19.25;;;28.68;97834.00;;;;119194;1187;25721;-64
2022/08/03 05:02:29;;;;;;;;;25.25;23.00;;;28.76;97836.21;;;;119154;1188;24781;-63
2022/08/03 05:04:58;;;;;;;;;25.50;22.50;;;28.82;97835.78;;;;118983;1189;25275;-63
2022/08/03 05:07:26;;;;;;;;;27.33;22.33;;;28.83;97835.45;;;;119143;1188;25518;-63
2022/08/03 05:10:07;;;;;;;;;35.00;29.50;;;28.89;97831.91;;;;119128;1187;25981;-65
2022/08/03 05:12:42;;;;;;;;;25.75;23.50;;;28.93;97832.73;;;;119174;1188;25980;-67
2022/08/03 05:15:10;;;;;;;;;29.50;21.50;;;28.97;97835.65;;;;119590;1188;25592;-65
2022/08/03 05:17:38;;;;;;;;;25.75;24.25;;;29.35;97837.55;;;;119616;1188;24947;-63
2022/08/03 05:20:07;;;;;;;;;24.25;20.50;;;29.74;97835.36;;;;119188;1187;25859;-63
2022/08/03 05:22:35;;;;;;;;;22.75;22.00;;;29.76;97838.44;;;;119147;1188;25150;-63
2022/08/03 05:25:04;;;;;;;;;29.00;21.75;;;29.60;97842.20;;;;119123;1187;25588;-63
2022/08/03 05:27:31;;;;;;;;;28.25;22.75;;;29.51;97839.00;;;;119151;1188;25680;-63
2022/08/03 05:29:59;;;;;;;;;22.75;19.00;;;29.47;97840.17;;;;119081;1187;26723;-63
2022/08/03 05:32:47;;;;;;;;;20.75;20.50;;;29.44;97839.84;;;;119052;1189;25240;-63
2022/08/03 05:35:15;;;;;;;;;22.67;20.00;;;29.42;97836.43;;;;119099;1188;25223;-63
2022/08/03 05:38:03;;;;;;;;;23.25;17.00;;;29.54;97838.98;;;;119433;1189;25714;-64
2022/08/03 05:40:32;;;;;;;;;26.00;20.75;;;29.86;97838.11;;;;119356;1190;25602;-64
2022/08/03 05:43:00;;;;;;;;;24.50;18.00;;;30.16;97837.00;;;;119637;1187;25223;-63
2022/08/03 05:45:28;;;;;;;;;18.50;16.50;;;30.36;97842.39;;;;119441;1186;25952;-63
2022/08/03 05:47:56;;;;;;;;;20.00;17.75;;;30.53;97844.89;;;;119646;1187;25000;-62
2022/08/03 05:50:24;;;;;;;;;20.50;20.25;;;30.67;97846.47;;;;119636;1188;25695;-62
2022/08/03 05:52:56;;;;;;;;;19.75;17.25;;;30.78;97849.45;;;;119320;1187;25184;-62
2022/08/03 05:55:25;;;;;;;;;23.50;21.75;;;30.66;97845.73;;;;119147;1187;25269;-62
2022/08/03 05:57:52;;;;;;;;;18.25;16.50;;;30.34;97856.70;;;;119116;1186;25211;-62
2022/08/03 06:00:23;;;;;;;;;23.00;18.75;;;30.10;97855.42;;;;119008;1188;26454;-62
2022/08/03 06:02:52;;;;;;;;;21.50;18.50;;;29.92;97853.23;;;;119015;1188;25648;-61
2022/08/03 06:05:20;;;;;;;;;18.50;16.75;;;29.79;97852.92;;;;119203;1187;25462;-62
2022/08/03 06:07:48;;;;;;;;;18.00;17.25;;;29.74;97854.14;;;;119143;1188;25496;-62
2022/08/03 06:10:15;;;;;;;;;17.25;14.75;;;29.67;97856.89;;;;119118;1187;25706;-62
2022/08/03 06:13:04;;;;;;;;;20.50;18.25;;;29.63;97859.02;;;;119118;1188;25669;-70
2022/08/03 06:15:34;;;;;;;;;19.00;19.00;;;29.60;97859.66;;;;118984;1189;25048;-66
2022/08/03 06:18:02;;;;;;;;;19.25;16.00;;;29.57;97859.90;;;;119124;1187;25994;-67
2022/08/03 06:20:30;;;;;;;;;23.25;19.00;;;29.53;97861.98;;;;119144;1188;24891;-71
2022/08/03 06:22:59;;;;;;;;;24.25;20.00;;;29.50;97860.08;;;;119151;1186;25028;-68
2022/08/03 06:25:28;;;;;;;;;17.25;16.00;;;29.48;97859.14;;;;119124;1188;25522;-67
2022/08/03 06:27:56;;;;;;;;;17.50;16.25;;;29.46;97861.05;;;;119013;1189;25069;-68
2022/08/03 06:30:24;;;;;;;;;19.75;16.75;;;29.43;97857.55;;;;119145;1186;25243;-69
2022/08/03 06:32:52;;;;;;;;;20.25;18.25;;;29.47;97862.13;;;;119133;1187;25191;-69
2022/08/03 06:35:20;;;;;;;;;17.75;17.75;;;29.46;97861.48;;;;118988;1188;24917;-65
2022/08/03 06:37:49;;;;;;;;;19.00;18.00;;;29.47;97862.64;;;;119140;1187;24803;-64
2022/08/03 06:40:19;;;;;;;;;17.50;16.75;;;29.48;97864.00;;;;119120;1187;25458;-65
2022/08/03 06:42:51;;;;;;;;;20.33;17.33;;;29.47;97861.91;;;;119025;1189;25507;-65
2022/08/03 06:45:19;;;;;;;;;19.00;19.00;;;29.47;97859.38;;;;119142;1187;25297;-66
2022/08/03 06:47:47;;;;;;;;;15.50;13.00;;;29.44;97855.41;;;;119009;1189;25011;-66
2022/08/03 06:50:14;;;;;;;;;13.25;13.25;;;29.46;97856.21;;;;118963;1189;25302;-66
2022/08/03 06:52:45;;;;;;;;;23.00;18.75;;;29.46;97855.13;;;;119114;1188;25680;-66
2022/08/03 06:55:12;;;;;;;;;16.25;15.75;;;29.47;97851.45;;;;119122;1188;26265;-66
2022/08/03 06:57:40;;;;;;;;;20.50;18.75;;;29.48;97854.58;;;;119126;1188;25264;-65
2022/08/03 07:00:10;;;;;;;;;24.25;19.25;;;29.48;97852.77;;;;119123;1188;25221;-65
2022/08/03 07:02:40;;;;;;;;;19.00;18.50;;;29.51;97852.96;;;;119151;1188;25415;-67
2022/08/03 07:05:09;;;;;;;;;18.00;17.75;;;29.49;97852.62;;;;119142;1188;24934;-68
2022/08/03 07:07:37;;;;;;;;;18.25;16.75;;;29.48;97851.19;;;;119139;1187;25013;-66
2022/08/03 07:10:06;;;;;;;;;15.25;15.25;;;29.48;97849.38;;;;119111;1188;25119;-65
2022/08/03 07:12:34;;;;;;;;;18.50;17.75;;;29.50;97848.07;;;;119113;1187;24945;-65
2022/08/03 07:15:04;;;;;;;;;15.75;15.75;;;29.50;97847.52;;;;119145;1188;24912;-65
2022/08/03 07:17:34;;;;;;;;;19.75;14.25;;;29.54;97847.05;;;;119148;1188;25622;-67
2022/08/03 07:20:05;;;;;;;;;19.50;18.00;;;29.55;97848.52;;;;119104;1188;25198;-63
2022/08/03 07:22:34;;;;;;;;;15.00;15.00;;;29.56;97848.89;;;;119138;1188;26407;-66
2022/08/03 07:25:03;;;;;;;;;15.50;15.50;;;29.56;97847.15;;;;119109;1188;25578;-67
2022/08/03 07:27:32;;;;;;;;;18.00;17.75;;;29.56;97848.55;;;;119036;1187;24928;-67
2022/08/03 07:30:00;;;;;;;;;19.00;17.00;;;29.63;97848.39;;;;119097;1187;24868;-64
2022/08/03 07:32:30;;;;;;;;;15.25;15.25;;;29.63;97846.95;;;;119115;1188;25681;-67
2022/08/03 07:34:58;;;;;;;;;19.00;18.00;;;29.61;97845.22;;;;119101;1188;24939;-74
2022/08/03 07:37:29;;;;;;;;;18.33;16.67;;;29.61;97841.70;;;;118994;1188;24984;-71
2022/08/03 07:39:57;;;;;;;;;16.25;13.75;;;29.61;97844.40;;;;119069;1187;25123;-66
2022/08/03 07:42:27;;;;;;;;;18.00;17.25;;;29.62;97846.56;;;;119071;1188;25643;-69
2022/08/03 07:44:56;;;;;;;;;16.00;14.50;;;29.61;97845.30;;;;119080;1188;24682;-65
2022/08/03 07:47:29;;;;;;;;;17.25;17.00;;;29.61;97847.13;;;;119068;1189;25578;-73
2022/08/03 07:50:04;;;;;;;;;15.50;15.50;;;29.62;97848.96;;;;118951;1188;25560;-68
2022/08/03 07:52:48;;;;;;;;;19.00;16.33;;;29.65;97845.66;;;;119078;1188;25438;-69
2022/08/03 07:55:19;;;;;;;;;12.00;12.00;;;29.66;97843.63;;;;119013;1186;25631;-69
2022/08/03 07:58:01;;;;;;;;;17.25;17.00;;;29.65;97847.84;;;;118928;1188;25430;-63
2022/08/03 08:00:30;;;;;;;;;19.25;17.25;;;29.68;97849.09;;;;119110;1188;25177;-75
2022/08/03 08:02:57;;;;;;;;;17.25;16.25;;;29.73;97849.94;;;;119097;1188;25064;-70
2022/08/03 08:05:26;;;;;;;;;22.25;18.00;;;29.71;97851.30;;;;118991;1189;25651;-71
2022/08/03 08:07:54;;;;;;;;;22.50;19.50;;;29.69;97851.05;;;;119042;1187;24879;-71
2022/08/03 08:10:22;;;;;;;;;20.75;18.25;;;29.70;97848.98;;;;119112;1188;25477;-70
2022/08/03 08:12:50;;;;;;;;;11.50;11.50;;;29.72;97844.98;;;;119074;1188;25705;-74
2022/08/03 08:15:18;;;;;;;;;17.00;14.50;;;29.72;97841.64;;;;119040;1189;25083;-70
2022/08/03 08:17:48;;;;;;;;;16.00;16.00;;;29.73;97845.44;;;;119095;1188;25363;-74
2022/08/03 08:20:21;;;;;;;;;18.50;17.00;;;29.76;97845.04;;;;119071;1187;25489;-73
2022/08/03 08:22:56;;;;;;;;;16.25;15.00;;;29.77;97845.02;;;;119182;1187;26432;-73
2022/08/03 08:25:29;;;;;;;;;19.00;16.75;;;29.78;97841.46;;;;119196;1187;25053;-73
2022/08/03 08:28:00;;;;;;;;;19.00;13.75;;;29.77;97841.79;;;;119179;1188;24866;-72
2022/08/03 08:30:48;;;;;;;;;14.50;14.50;;;29.82;97844.27;;;;119173;1188;25385;-68
2022/08/03 08:33:16;;;;;;;;;15.00;14.25;;;29.85;97841.19;;;;119193;1188;24802;-73
2022/08/03 08:35:52;;;;;;;;;17.00;15.25;;;29.82;97840.83;;;;119018;1188;25791;-75
2022/08/03 08:38:21;;;;;;;;;20.75;18.50;;;29.82;97839.31;;;;119191;1188;24902;-74
2022/08/03 08:40:49;;;;;;;;;16.00;15.50;;;29.81;97841.06;;;;119159;1187;24865;-71
2022/08/03 08:43:17;;;;;;;;;18.00;17.75;;;29.81;97841.76;;;;119179;1188;25252;-72
2022/08/03 08:45:49;;;;;;;;;16.75;15.75;;;29.81;97844.82;;;;119203;1187;25071;-72
2022/08/03 08:48:22;;;;;;;;;17.25;15.50;;;29.79;97845.64;;;;119170;1186;25714;-72
2022/08/03 08:50:54;;;;;;;;;17.25;14.25;;;29.81;97845.77;;;;118995;1188;25249;-72
2022/08/03 08:53:27;;;;;;;;;15.00;15.00;;;29.83;97842.02;;;;119194;1187;24991;-72
2022/08/03 08:56:02;;;;;;;;;19.25;16.25;;;29.83;97839.41;;;;119154;1188;25945;-71
2022/08/03 08:58:34;;;;;;;;;19.00;16.25;;;29.82;97837.81;;;;118923;1188;25665;-69
2022/08/03 09:01:02;;;;;;;;;18.50;17.50;;;29.83;97838.22;;;;119190;1188;25106;-69
2022/08/03 09:03:33;;;;;;;;;16.75;16.50;;;29.83;97831.91;;;;119185;1187;25684;-70
2022/08/03 09:06:01;;;;;;;;;18.50;16.00;;;29.82;97835.00;;;;118969;1190;26070;-70
2022/08/03 09:08:31;;;;;;;;;17.00;16.00;;;29.81;97837.73;;;;119196;1188;25637;-69
2022/08/03 09:10:59;;;;;;;;;17.00;14.50;;;29.80;97836.10;;;;118955;1189;25616;-72
2022/08/03 09:13:28;;;;;;;;;15.25;13.75;;;29.80;97834.34;;;;118960;1189;25788;-65
2022/08/03 09:16:15;;;;;;;;;16.50;13.25;;;29.80;97830.49;;;;119163;1188;25496;-66
2022/08/03 09:18:48;;;;;;;;;14.25;14.00;;;29.82;97827.08;;;;119124;1186;25442;-66
2022/08/03 09:21:28;;;;;;;;;16.50;16.50;;;29.83;97825.98;;;;119148;1188;25212;-67
2022/08/03 09:24:05;;;;;;;;;15.00;15.00;;;29.84;97832.42;;;;119178;1187;25654;-66
2022/08/03 09:26:49;;;;;;;;;18.00;15.25;;;29.87;97832.67;;;;119121;1188;24919;-67
2022/08/03 09:29:19;;;;;;;;;13.33;11.33;;;29.88;97832.77;;;;118989;1186;25426;-70
2022/08/03 09:31:47;;;;;;;;;20.25;17.00;;;29.88;97828.48;;;;119123;1188;24941;-73
2022/08/03 09:34:16;;;;;;;;;14.50;12.75;;;29.88;97828.78;;;;119126;1187;25640;-70
2022/08/03 09:36:45;;;;;;;;;16.50;12.50;;;29.87;97830.06;;;;119133;1187;25107;-73
2022/08/03 09:39:16;;;;;;;;;10.50;10.25;;;29.87;97829.89;;;;119131;1187;25454;-70
2022/08/03 09:41:47;;;;;;;;;11.25;10.75;;;29.86;97828.88;;;;119106;1186;25456;-71
2022/08/03 09:44:15;;;;;;;;;12.50;11.50;;;29.87;97824.30;;;;118926;1189;25190;-70
2022/08/03 09:46:56;;;;;;;;;10.25;8.50;;;29.89;97822.02;;;;119077;1189;25326;-69
2022/08/03 09:49:24;;;;;;;;;14.50;14.50;;;29.90;97820.17;;;;119101;1187;25608;-70
2022/08/03 09:51:53;;;;;;;;;11.00;11.00;;;29.89;97816.76;;;;119123;1188;26363;-68
2022/08/03 09:54:42;;;;;;;;;15.00;11.75;;;29.92;97812.83;;;;119138;1187;25260;-68
2022/08/03 09:57:21;;;;;;;;;11.50;10.75;;;29.95;97811.54;;;;119128;1187;25642;-71
2022/08/03 09:59:50;;;;;;;;;16.00;13.50;;;29.93;97812.01;;;;119155;1187;25030;-69
2022/08/03 10:02:31;;;;;;;;;10.75;10.75;;;29.92;97809.78;;;;119134;1187;25153;-70
2022/08/03 10:04:59;;;;;;;;;15.50;12.00;;;29.94;97809.13;;;;119139;1188;25575;-71
2022/08/03 10:07:27;;;;;;;;;10.50;10.50;;;29.91;97805.45;;;;119066;1187;25724;-70
2022/08/03 10:10:00;;;;;;;;;15.25;13.50;;;29.92;97802.54;;;;119036;1188;25626;-65
2022/08/03 10:12:49;;;;;;;;;14.00;11.75;;;29.98;97800.32;;;;119049;1188;25562;-68
2022/08/03 10:15:17;;;;;;;;;15.75;13.75;;;30.00;97800.42;;;;119037;1187;25561;-64
2022/08/03 10:18:05;;;;;;;;;8.50;8.50;;;30.01;97800.61;;;;119355;1187;24963;-66
2022/08/03 10:20:49;;;;;;;;;8.50;8.50;;;30.01;97797.69;;;;119374;1186;25370;-66
2022/08/03 10:23:18;;;;;;;;;10.50;9.75;;;30.03;97788.48;;;;119433;1186;25811;-76
2022/08/03 10:25:48;;;;;;;;;11.50;11.50;;;30.06;97793.10;;;;119405;1186;25251;-75
2022/08/03 10:28:18;;;;;;;;;9.50;9.50;;;30.08;97798.02;;;;119369;1186;25335;-72
2022/08/03 10:30:49;;;;;;;;;10.00;10.00;;;30.09;97802.86;;;;119307;1186;26166;-68
2022/08/03 10:33:23;;;;;;;;;10.50;10.50;;;30.10;97798.64;;;;119356;1186;26060;-69
2022/08/03 10:36:12;;;;;;;;;10.50;9.50;;;30.12;97791.02;;;;119255;1187;25937;-68
2022/08/03 10:38:46;;;;;;;;;10.50;9.00;;;30.14;97789.33;;;;119379;1186;25505;-68
2022/08/03 10:41:21;;;;;;;;;11.25;10.00;;;30.16;97784.52;;;;119348;1186;25176;-65
2022/08/03 10:43:54;;;;;;;;;9.67;8.33;;;30.15;97783.65;;;;119392;1186;25448;-65
2022/08/03 10:46:22;;;;;;;;;10.25;9.75;;;30.14;97783.73;;;;119406;1186;25540;-66
2022/08/03 10:48:51;;;;;;;;;7.25;6.50;;;30.13;97781.71;;;;119386;1186;25382;-66
2022/08/03 10:51:19;;;;;;;;;9.25;9.25;;;30.11;97781.20;;;;119380;1186;25495;-65
2022/08/03 10:53:47;;;;;;;;;9.00;8.00;;;30.11;97782.05;;;;119380;1187;25725;-66
2022/08/03 10:59:21;;;;;;;;;9.25;8.50;;;30.14;97772.80;;;;119381;1186;25291;-66
2022/08/03 11:01:56;;;;;;;;;8.50;8.50;;;30.13;97774.70;;;;119272;1186;24959;-75
2022/08/03 11:04:28;;;;;;;;;8.75;6.75;;;30.14;97769.52;;;;119398;1186;25356;-73
2022/08/03 11:07:16;;;;;;;;;8.75;7.50;;;30.16;97770.58;;;;119345;1186;25463;-71
2022/08/03 11:09:47;;;;;;;;;7.00;6.50;;;30.18;97769.05;;;;119376;1186;25623;-75
2022/08/03 11:12:20;;;;;;;;;11.00;9.75;;;30.16;97765.84;;;;119381;1186;25875;-76
2022/08/03 11:15:05;;;;;;;;;9.75;8.50;;;30.17;97766.13;;;;119366;1186;24944;-75
2022/08/03 11:17:33;;;;;;;;;10.50;8.25;;;30.19;97761.02;;;;119369;1186;25528;-75
2022/08/03 11:20:47;;;;;;;;;9.75;6.50;;;30.21;97757.04;;;;119381;1186;25701;-62
2022/08/03 11:23:18;;;;;;;;;9.33;7.33;;;30.25;97754.14;;;;119372;1186;26357;-66
2022/08/03 11:26:10;;;;;;;;;8.00;8.00;;;30.28;97756.38;;;;119373;1186;25672;-66
2022/08/03 11:28:38;;;;;;;;;6.00;6.00;;;30.27;97749.14;;;;119384;1187;25472;-68
2022/08/03 11:31:22;;;;;;;;;7.25;7.25;;;30.24;97747.15;;;;119273;1187;25294;-63
2022/08/03 11:34:11;;;;;;;;;8.50;8.50;;;30.26;97747.67;;;;119349;1186;24895;-64
2022/08/03 11:37:16;;;;;;;;;10.75;9.25;;;30.27;97743.37;;;;119354;1186;24968;-67
2022/08/03 11:39:46;;;;;;;;;10.25;8.75;;;30.25;97740.56;;;;119363;1186;25361;-67
2022/08/03 11:42:23;;;;;;;;;9.75;8.75;;;30.23;97735.61;;;;119243;1187;25631;-66
2022/08/03 11:44:53;;;;;;;;;6.75;6.75;;;30.24;97729.77;;;;119358;1186;25238;-65
2022/08/03 11:47:23;;;;;;;;;8.25;8.25;;;30.24;97728.79;;;;119375;1187;24773;-68
2022/08/03 11:49:54;;;;;;;;;8.75;8.75;;;30.25;97729.03;;;;119240;1186;25322;-65
2022/08/03 11:52:22;;;;;;;;;9.50;9.25;;;30.26;97724.21;;;;119217;1188;25247;-65
2022/08/03 11:54:54;;;;;;;;;10.50;7.50;;;30.27;97725.37;;;;119272;1187;24849;-66
2022/08/03 11:57:31;;;;;;;;;7.25;7.25;;;30.27;97724.96;;;;119383;1185;24762;-68
2022/08/03 12:00:19;;;;;;;;;10.25;8.75;;;30.34;97724.83;;;;119373;1186;25534;-68
2022/08/03 12:02:57;;;;;;;;;5.25;5.25;;;30.37;97723.13;;;;119379;1186;24912;-67
2022/08/03 12:05:41;;;;;;;;;7.00;7.00;;;30.35;97719.27;;;;119363;1186;25404;-68
2022/08/03 12:08:31;;;;;;;;;7.00;7.00;;;30.37;97710.46;;;;119383;1186;25185;-66
2022/08/03 12:11:03;;;;;;;;;8.50;6.25;;;30.38;97709.14;;;;119365;1187;26437;-65
2022/08/03 12:13:42;;;;;;;;;10.00;10.00;;;30.41;97709.66;;;;119401;1187;25158;-67
2022/08/03 12:16:30;;;;;;;;;8.00;6.00;;;30.43;97703.48;;;;119347;1186;25104;-67
2022/08/03 12:19:03;;;;;;;;;10.25;7.50;;;30.46;97708.73;;;;119404;1186;25273;-67
2022/08/03 12:21:31;;;;;;;;;9.75;8.25;;;30.45;97706.63;;;;119473;1187;25744;-66
2022/08/03 12:24:02;;;;;;;;;8.25;7.00;;;30.45;97702.98;;;;119441;1186;25257;-66
2022/08/03 12:26:45;;;;;;;;;9.75;7.75;;;30.45;97700.79;;;;119292;1187;25010;-67
2022/08/03 12:29:29;;;;;;;;;6.00;6.00;;;30.50;97700.27;;;;119383;1187;25567;-69